Time,TemperatureF,DewpointF,PressureIn,WindDirection,WindDirectionDegrees,WindSpeedMPH,WindSpeedGustMPH,Humidity,HourlyPrecipIn,Conditions,Clouds,dailyrainin,SoftwareType,DateUTC
2013-08-03 00:03:00,73.1,47.7,30.15,WSW,240,0.0,0.0,40,0.00,,---,0.00,VWS V14.01,2013-08-03 06:03:00,
2013-08-03 00:08:00,73.1,47.5,30.15,SW,228,3.2,5.0,40,0.00,,---,0.00,VWS V14.01,2013-08-03 06:08:00,
2013-08-03 00:13:00,73.1,47.2,30.15,SW,226,3.4,5.5,40,0.00,,---,0.00,VWS V14.01,2013-08-03 06:13:00,
2013-08-03 00:18:00,73.3,47.2,30.15,SSW,193,0.0,0.0,39,0.00,,---,0.00,VWS V14.01,2013-08-03 06:18:00,
2013-08-03 00:23:00,73.4,47.0,30.15,SW,233,3.3,4.2,39,0.00,,---,0.00,VWS V14.01,2013-08-03 06:23:00,
2013-08-03 00:28:00,73.4,47.0,30.16,West,263,0.0,2.8,39,0.00,,---,0.00,VWS V14.01,2013-08-03 06:28:00,
2013-08-03 00:33:00,73.3,47.2,30.16,SW,228,0.0,5.9,40,0.00,,---,0.00,VWS V14.01,2013-08-03 06:33:00,
2013-08-03 00:38:00,73.2,47.5,30.16,SW,219,0.0,0.0,40,0.00,,---,0.00,VWS V14.01,2013-08-03 06:38:00,
2013-08-03 00:43:00,73.1,47.7,30.16,SSW,207,0.0,0.0,40,0.00,,---,0.00,VWS V14.01,2013-08-03 06:43:00,
2013-08-03 00:48:00,72.9,47.8,30.16,SW,228,0.0,0.0,41,0.00,,---,0.00,VWS V14.01,2013-08-03 06:48:00,
2013-08-03 00:53:00,72.7,48.0,30.15,South,183,0.0,0.0,42,0.00,,---,0.00,VWS V14.01,2013-08-03 06:53:00,
2013-08-03 00:58:00,72.5,48.1,30.15,South,183,0.0,0.0,42,0.00,,---,0.00,VWS V14.01,2013-08-03 06:58:00,
2013-08-03 00:59:00,68.0,54.7,30.07,NNE,32,0.0,0.0,62,0.00,,---,0.00,VWS V14.01,2013-08-03 06:59:00,
2013-08-03 01:03:00,72.4,48.4,30.15,South,183,0.0,0.0,43,0.00,,---,0.00,VWS V14.01,2013-08-03 07:03:00,
2013-08-03 01:08:00,72.3,48.6,30.15,South,183,0.0,0.0,43,0.00,,---,0.00,VWS V14.01,2013-08-03 07:08:00,
2013-08-03 01:13:00,72.2,48.5,30.15,South,183,0.0,0.0,43,0.00,,---,0.00,VWS V14.01,2013-08-03 07:13:00,
2013-08-03 01:18:00,72.1,48.6,30.15,South,183,0.0,0.0,43,0.00,,---,0.00,VWS V14.01,2013-08-03 07:18:00,
2013-08-03 01:23:00,71.9,49.4,30.15,South,183,0.0,0.0,45,0.00,,---,0.00,VWS V14.01,2013-08-03 07:23:00,
2013-08-03 01:28:00,71.8,48.9,30.14,South,183,0.0,0.0,44,0.00,,---,0.00,VWS V14.01,2013-08-03 07:28:00,
2013-08-03 01:33:00,71.7,50.1,30.15,South,183,0.0,0.0,46,0.00,,---,0.00,VWS V14.01,2013-08-03 07:33:00,
2013-08-03 01:38:00,71.6,50.1,30.15,South,183,0.0,0.0,47,0.00,,---,0.00,VWS V14.01,2013-08-03 07:38:00,
2013-08-03 01:44:00,71.5,49.6,30.15,South,183,0.0,0.0,46,0.00,,---,0.00,VWS V14.01,2013-08-03 07:44:00,
2013-08-03 01:49:00,71.3,49.4,30.15,South,183,0.0,0.0,46,0.00,,---,0.00,VWS V14.01,2013-08-03 07:49:00,
2013-08-03 01:54:00,71.1,49.5,30.15,South,183,0.0,0.0,46,0.00,,---,0.00,VWS V14.01,2013-08-03 07:54:00,
2013-08-03 01:59:00,71.0,49.5,30.15,South,183,0.0,0.0,46,0.00,,---,0.00,VWS V14.01,2013-08-03 07:59:00,
2013-08-03 02:04:00,70.8,49.8,30.15,South,183,0.0,0.0,47,0.00,,---,0.00,VWS V14.01,2013-08-03 08:04:00,
2013-08-03 02:09:00,70.7,49.8,30.15,South,183,0.0,0.0,48,0.00,,---,0.00,VWS V14.01,2013-08-03 08:09:00,
2013-08-03 02:14:00,70.5,50.4,30.15,South,183,0.0,0.0,49,0.00,,---,0.00,VWS V14.01,2013-08-03 08:14:00,
2013-08-03 02:19:00,70.3,50.8,30.15,South,183,0.0,0.0,50,0.00,,---,0.00,VWS V14.01,2013-08-03 08:19:00,
2013-08-03 02:24:00,70.1,50.8,30.15,South,183,0.0,0.0,50,0.00,,---,0.00,VWS V14.01,2013-08-03 08:24:00,
2013-08-03 02:29:00,69.9,51.3,30.15,South,183,0.0,0.0,52,0.00,,---,0.00,VWS V14.01,2013-08-03 08:29:00,
2013-08-03 02:34:00,69.6,51.4,30.15,South,183,0.0,0.0,52,0.00,,---,0.00,VWS V14.01,2013-08-03 08:34:00,
2013-08-03 02:39:00,69.5,51.4,30.15,South,183,0.0,0.0,53,0.00,,---,0.00,VWS V14.01,2013-08-03 08:39:00,
2013-08-03 02:44:00,69.5,51.9,30.15,South,183,0.0,0.0,54,0.00,,---,0.00,VWS V14.01,2013-08-03 08:44:00,
2013-08-03 02:49:00,69.2,51.8,30.15,South,183,0.0,0.0,54,0.00,,---,0.00,VWS V14.01,2013-08-03 08:49:00,
2013-08-03 02:54:00,69.0,52.2,30.15,South,183,0.0,0.0,55,0.00,,---,0.00,VWS V14.01,2013-08-03 08:54:00,
2013-08-03 02:59:00,69.0,52.2,30.15,South,183,0.0,0.0,55,0.00,,---,0.00,VWS V14.01,2013-08-03 08:59:00,
2013-08-03 03:04:00,68.8,52.2,30.15,South,183,0.0,0.0,56,0.00,,---,0.00,VWS V14.01,2013-08-03 09:04:00,
2013-08-03 03:09:00,68.8,52.3,30.15,South,183,0.0,0.0,56,0.00,,---,0.00,VWS V14.01,2013-08-03 09:09:00,
2013-08-03 03:14:00,68.9,52.2,30.15,South,183,0.0,0.0,55,0.00,,---,0.00,VWS V14.01,2013-08-03 09:14:00,
2013-08-03 03:19:00,68.7,52.0,30.15,South,183,0.0,0.0,55,0.00,,---,0.00,VWS V14.01,2013-08-03 09:19:00,
2013-08-03 03:24:00,68.7,52.2,30.15,South,183,0.0,0.0,56,0.00,,---,0.00,VWS V14.01,2013-08-03 09:24:00,
2013-08-03 03:29:00,68.7,52.8,30.15,South,183,0.0,0.0,57,0.00,,---,0.00,VWS V14.01,2013-08-03 09:29:00,
2013-08-03 03:34:00,68.5,53.0,30.15,South,183,0.0,0.0,58,0.00,,---,0.00,VWS V14.01,2013-08-03 09:34:00,
2013-08-03 03:39:00,68.3,53.1,30.15,South,183,0.0,0.0,58,0.00,,---,0.00,VWS V14.01,2013-08-03 09:39:00,
2013-08-03 03:44:00,68.1,53.1,30.15,South,183,0.0,0.0,59,0.00,,---,0.00,VWS V14.01,2013-08-03 09:44:00,
2013-08-03 03:49:00,67.9,53.2,30.15,South,183,0.0,0.0,59,0.00,,---,0.00,VWS V14.01,2013-08-03 09:49:00,
2013-08-03 03:54:00,67.8,53.4,30.15,South,183,0.0,0.0,60,0.00,,---,0.00,VWS V14.01,2013-08-03 09:54:00,
2013-08-03 03:59:00,67.6,53.6,30.15,South,183,0.0,0.0,61,0.00,,---,0.00,VWS V14.01,2013-08-03 09:59:00,
2013-08-03 04:04:00,67.4,53.5,30.15,South,183,0.0,0.0,61,0.00,,---,0.00,VWS V14.01,2013-08-03 10:04:00,
2013-08-03 04:09:00,67.1,53.6,30.15,South,183,0.0,0.0,62,0.00,,---,0.00,VWS V14.01,2013-08-03 10:09:00,
2013-08-03 04:14:00,67.0,53.7,30.15,South,183,0.0,0.0,62,0.00,,---,0.00,VWS V14.01,2013-08-03 10:14:00,
2013-08-03 04:19:00,66.9,53.9,30.15,South,183,0.0,0.0,63,0.00,,---,0.00,VWS V14.01,2013-08-03 10:19:00,
2013-08-03 04:24:00,66.9,54.1,30.15,South,183,0.0,0.0,63,0.00,,---,0.00,VWS V14.01,2013-08-03 10:24:00,
2013-08-03 04:29:00,66.7,54.4,30.15,South,183,0.0,0.0,64,0.00,,---,0.00,VWS V14.01,2013-08-03 10:29:00,
2013-08-03 04:34:00,66.6,54.3,30.15,South,183,0.0,0.0,65,0.00,,---,0.00,VWS V14.01,2013-08-03 10:34:00,
2013-08-03 04:39:00,66.5,54.4,30.15,South,183,0.0,0.0,65,0.00,,---,0.00,VWS V14.01,2013-08-03 10:39:00,
2013-08-03 04:44:00,66.4,54.5,30.15,South,183,0.0,0.0,65,0.00,,---,0.00,VWS V14.01,2013-08-03 10:44:00,
2013-08-03 04:49:00,66.3,54.5,30.15,South,183,0.0,0.0,66,0.00,,---,0.00,VWS V14.01,2013-08-03 10:49:00,
2013-08-03 04:54:00,66.0,54.7,30.15,South,183,0.0,0.0,67,0.00,,---,0.00,VWS V14.01,2013-08-03 10:54:00,
2013-08-03 04:59:00,65.8,54.7,30.15,South,183,0.0,0.0,67,0.00,,---,0.00,VWS V14.01,2013-08-03 10:59:00,
2013-08-03 05:04:00,65.7,54.7,30.15,South,183,0.0,0.0,68,0.00,,---,0.00,VWS V14.01,2013-08-03 11:04:00,
2013-08-03 05:09:00,65.6,54.7,30.15,South,183,0.0,0.0,68,0.00,,---,0.00,VWS V14.01,2013-08-03 11:09:00,
2013-08-03 05:14:00,65.5,54.8,30.16,South,183,0.0,0.0,68,0.00,,---,0.00,VWS V14.01,2013-08-03 11:14:00,
2013-08-03 05:19:00,65.3,54.8,30.16,South,183,0.0,0.0,69,0.00,,---,0.00,VWS V14.01,2013-08-03 11:19:00,
2013-08-03 05:25:00,65.3,55.0,30.16,South,183,0.0,0.0,69,0.00,,---,0.00,VWS V14.01,2013-08-03 11:25:00,
2013-08-03 05:30:00,65.2,55.0,30.16,South,183,0.0,0.0,70,0.00,,---,0.00,VWS V14.01,2013-08-03 11:30:00,
2013-08-03 05:34:00,65.2,55.1,30.16,South,183,0.0,0.0,70,0.00,,---,0.00,VWS V14.01,2013-08-03 11:34:00,
2013-08-03 05:40:00,65.2,55.3,30.17,South,183,0.0,0.0,70,0.00,,---,0.00,VWS V14.01,2013-08-03 11:40:00,
2013-08-03 05:45:00,65.2,55.5,30.17,South,183,0.0,0.0,71,0.00,,---,0.00,VWS V14.01,2013-08-03 11:45:00,
2013-08-03 05:50:00,65.0,55.4,30.17,South,183,0.0,0.0,71,0.00,,---,0.00,VWS V14.01,2013-08-03 11:50:00,
2013-08-03 05:55:00,64.9,55.5,30.17,South,183,0.0,0.0,72,0.00,,---,0.00,VWS V14.01,2013-08-03 11:55:00,
2013-08-03 06:00:00,64.8,55.7,30.17,South,183,0.0,0.0,72,0.00,,---,0.00,VWS V14.01,2013-08-03 12:00:00,
2013-08-03 06:05:00,64.7,55.8,30.17,South,183,0.0,0.0,73,0.00,,---,0.00,VWS V14.01,2013-08-03 12:05:00,
2013-08-03 06:09:00,64.7,55.9,30.18,South,183,0.0,0.0,73,0.00,,---,0.00,VWS V14.01,2013-08-03 12:09:00,
2013-08-03 06:14:00,64.7,55.9,30.18,South,183,0.0,0.0,73,0.00,,---,0.00,VWS V14.01,2013-08-03 12:14:00,
2013-08-03 06:19:00,64.8,56.1,30.18,South,183,0.0,0.0,74,0.00,,---,0.00,VWS V14.01,2013-08-03 12:19:00,
2013-08-03 06:25:00,64.8,56.2,30.18,South,183,0.0,0.0,74,0.00,,---,0.00,VWS V14.01,2013-08-03 12:25:00,
2013-08-03 06:30:00,64.8,56.2,30.18,South,183,0.0,0.0,74,0.00,,---,0.00,VWS V14.01,2013-08-03 12:30:00,
2013-08-03 06:35:00,64.9,56.3,30.18,South,183,0.0,0.0,74,0.00,,---,0.00,VWS V14.01,2013-08-03 12:35:00,
2013-08-03 06:40:00,65.1,56.5,30.18,South,183,0.0,0.0,74,0.00,,---,0.00,VWS V14.01,2013-08-03 12:40:00,
2013-08-03 06:45:00,65.3,56.8,30.19,South,183,0.0,0.0,74,0.00,,---,0.00,VWS V14.01,2013-08-03 12:45:00,
2013-08-03 06:50:00,65.5,57.0,30.19,South,183,0.0,0.0,74,0.00,,---,0.00,VWS V14.01,2013-08-03 12:50:00,
2013-08-03 06:55:00,65.7,57.3,30.19,South,183,0.0,0.0,74,0.00,,---,0.00,VWS V14.01,2013-08-03 12:55:00,
2013-08-03 07:00:00,65.9,57.5,30.19,South,183,0.0,0.0,74,0.00,,---,0.00,VWS V14.01,2013-08-03 13:00:00,
2013-08-03 07:05:00,66.2,57.8,30.19,South,183,0.0,0.0,74,0.00,,---,0.00,VWS V14.01,2013-08-03 13:05:00,
2013-08-03 07:10:00,66.3,58.0,30.19,South,183,0.0,0.0,75,0.00,,---,0.00,VWS V14.01,2013-08-03 13:10:00,
2013-08-03 07:15:00,66.4,58.0,30.19,South,183,0.0,0.0,74,0.00,,---,0.00,VWS V14.01,2013-08-03 13:15:00,
2013-08-03 07:20:00,66.6,58.1,30.20,South,183,0.0,0.0,74,0.00,,---,0.00,VWS V14.01,2013-08-03 13:20:00,
2013-08-03 07:25:00,66.9,58.7,30.19,South,183,0.0,0.0,75,0.00,,---,0.00,VWS V14.01,2013-08-03 13:25:00,
2013-08-03 07:30:00,67.0,58.9,30.19,South,183,0.0,0.0,75,0.00,,---,0.00,VWS V14.01,2013-08-03 13:30:00,
2013-08-03 07:35:00,67.3,59.4,30.20,South,183,0.0,0.0,76,0.00,,---,0.00,VWS V14.01,2013-08-03 13:35:00,
2013-08-03 07:40:00,67.7,60.0,30.20,South,183,0.0,0.0,76,0.00,,---,0.00,VWS V14.01,2013-08-03 13:40:00,
2013-08-03 07:45:00,67.9,60.0,30.20,South,183,0.0,0.0,76,0.00,,---,0.00,VWS V14.01,2013-08-03 13:45:00,
2013-08-03 07:46:00,67.9,60.0,30.20,South,183,0.0,0.0,76,0.00,,---,0.00,VWS V14.01,2013-08-03 13:46:00,
2013-08-03 07:51:00,68.2,60.5,30.20,South,183,0.0,0.0,76,0.00,,---,0.00,VWS V14.01,2013-08-03 13:51:00,
2013-08-03 07:56:00,68.4,60.8,30.20,South,183,0.0,0.0,77,0.00,,---,0.00,VWS V14.01,2013-08-03 13:56:00,
2013-08-03 08:01:00,68.7,60.9,30.20,South,183,0.0,0.0,76,0.00,,---,0.00,VWS V14.01,2013-08-03 14:01:00,
2013-08-03 08:06:00,69.0,60.8,30.20,South,183,0.0,0.0,75,0.00,,---,0.00,VWS V14.01,2013-08-03 14:06:00,
2013-08-03 08:11:00,69.4,61.2,30.20,NNW,339,5.3,6.3,75,0.00,,---,0.00,VWS V14.01,2013-08-03 14:11:00,
2013-08-03 08:16:00,69.7,61.2,30.20,NNW,328,6.1,6.1,74,0.00,,---,0.00,VWS V14.01,2013-08-03 14:16:00,
2013-08-03 08:21:00,69.9,61.0,30.20,North,1,0.0,0.0,73,0.00,,---,0.00,VWS V14.01,2013-08-03 14:21:00,
2013-08-03 08:27:00,70.0,60.8,30.20,North,359,0.0,0.0,73,0.00,,---,0.00,VWS V14.01,2013-08-03 14:27:00,
2013-08-03 08:32:00,70.0,60.4,30.20,North,359,0.0,0.0,72,0.00,,---,0.00,VWS V14.01,2013-08-03 14:32:00,
2013-08-03 08:37:00,70.3,60.6,30.20,North,359,0.0,0.0,71,0.00,,---,0.00,VWS V14.01,2013-08-03 14:37:00,
2013-08-03 08:42:00,70.7,60.8,30.21,North,359,0.0,0.0,71,0.00,,---,0.00,VWS V14.01,2013-08-03 14:42:00,
2013-08-03 08:47:00,71.5,61.4,30.21,North,359,0.0,0.0,70,0.00,,---,0.00,VWS V14.01,2013-08-03 14:47:00,
2013-08-03 08:52:00,72.1,61.2,30.21,North,359,0.0,0.0,68,0.00,,---,0.00,VWS V14.01,2013-08-03 14:52:00,
2013-08-03 08:57:00,72.6,60.9,30.20,North,359,0.0,0.0,67,0.00,,---,0.00,VWS V14.01,2013-08-03 14:57:00,
2013-08-03 09:02:00,72.7,60.7,30.21,North,359,0.0,0.0,66,0.00,,---,0.00,VWS V14.01,2013-08-03 15:02:00,
2013-08-03 09:07:00,72.8,60.3,30.21,North,359,0.0,0.0,65,0.00,,---,0.00,VWS V14.01,2013-08-03 15:07:00,
2013-08-03 09:12:00,73.3,60.3,30.21,North,359,0.0,0.0,64,0.00,,---,0.00,VWS V14.01,2013-08-03 15:12:00,
2013-08-03 09:17:00,73.7,60.6,30.21,North,359,0.0,0.0,64,0.00,,---,0.00,VWS V14.01,2013-08-03 15:17:00,
2013-08-03 09:23:00,74.1,60.4,30.21,North,359,0.0,0.0,62,0.00,,---,0.00,VWS V14.01,2013-08-03 15:23:00,
2013-08-03 09:28:00,74.4,60.6,30.21,North,359,0.0,0.0,62,0.00,,---,0.00,VWS V14.01,2013-08-03 15:28:00,
2013-08-03 09:33:00,74.7,59.8,30.21,North,359,0.0,0.0,60,0.00,,---,0.00,VWS V14.01,2013-08-03 15:33:00,
2013-08-03 09:38:00,74.9,59.9,30.21,North,359,0.0,0.0,60,0.00,,---,0.00,VWS V14.01,2013-08-03 15:38:00,
2013-08-03 09:43:00,75.2,60.6,30.21,SSW,194,4.6,4.6,60,0.00,,---,0.00,VWS V14.01,2013-08-03 15:43:00,
2013-08-03 09:48:00,75.6,60.1,30.21,South,183,0.0,0.0,59,0.00,,---,0.00,VWS V14.01,2013-08-03 15:48:00,
2013-08-03 09:53:00,75.8,60.7,30.21,SSW,207,2.7,4.3,60,0.00,,---,0.00,VWS V14.01,2013-08-03 15:53:00,
2013-08-03 09:58:00,76.2,61.1,30.20,SW,225,0.0,0.0,60,0.00,,---,0.00,VWS V14.01,2013-08-03 15:58:00,
2013-08-03 10:03:00,76.6,60.0,30.20,SW,225,0.0,0.0,57,0.00,,---,0.00,VWS V14.01,2013-08-03 16:03:00,
2013-08-03 10:08:00,76.8,59.1,30.20,SW,225,0.0,0.0,54,0.00,,---,0.00,VWS V14.01,2013-08-03 16:08:00,
2013-08-03 10:13:00,77.3,59.9,30.20,SW,225,0.0,0.0,55,0.00,,---,0.00,VWS V14.01,2013-08-03 16:13:00,
2013-08-03 10:18:00,77.5,60.0,30.20,ESE,103,0.0,0.0,55,0.00,,---,0.00,VWS V14.01,2013-08-03 16:18:00,
2013-08-03 10:23:00,77.8,60.2,30.20,WSW,243,0.0,2.3,55,0.00,,---,0.00,VWS V14.01,2013-08-03 16:23:00,
2013-08-03 10:28:00,78.3,59.6,30.20,SSE,167,0.0,0.0,53,0.00,,---,0.00,VWS V14.01,2013-08-03 16:28:00,
2013-08-03 10:33:00,78.6,57.8,30.20,SSE,167,0.0,0.0,49,0.00,,---,0.00,VWS V14.01,2013-08-03 16:33:00,
2013-08-03 10:38:00,78.9,57.9,30.20,SSE,167,0.0,0.0,49,0.00,,---,0.00,VWS V14.01,2013-08-03 16:38:00,
2013-08-03 10:43:00,78.9,57.2,30.20,SW,215,3.1,4.2,47,0.00,,---,0.00,VWS V14.01,2013-08-03 16:43:00,
2013-08-03 10:48:00,79.3,57.1,30.20,South,188,0.0,0.0,47,0.00,,---,0.00,VWS V14.01,2013-08-03 16:48:00,
2013-08-03 10:53:00,79.4,55.8,30.20,South,188,0.0,0.0,44,0.00,,---,0.00,VWS V14.01,2013-08-03 16:53:00,
2013-08-03 10:58:00,79.5,56.9,30.20,South,188,0.0,0.0,46,0.00,,---,0.00,VWS V14.01,2013-08-03 16:58:00,
2013-08-03 11:03:00,79.9,57.8,30.20,South,188,0.0,0.0,47,0.00,,---,0.00,VWS V14.01,2013-08-03 17:03:00,
2013-08-03 11:08:00,80.5,56.5,30.20,South,176,0.0,2.3,44,0.00,,---,0.00,VWS V14.01,2013-08-03 17:08:00,
2013-08-03 11:13:00,80.9,57.2,30.20,South,176,0.0,0.0,44,0.00,,---,0.00,VWS V14.01,2013-08-03 17:13:00,
2013-08-03 11:18:00,81.5,56.8,30.20,South,169,0.0,0.0,43,0.00,,---,0.00,VWS V14.01,2013-08-03 17:18:00,
2013-08-03 11:23:00,81.9,55.9,30.20,South,187,2.2,4.7,41,0.00,,---,0.00,VWS V14.01,2013-08-03 17:23:00,
2013-08-03 11:28:00,82.1,53.9,30.20,NE,38,0.0,0.0,38,0.00,,---,0.00,VWS V14.01,2013-08-03 17:28:00,
2013-08-03 11:33:00,82.2,53.1,30.20,North,0,0.0,0.0,37,0.00,,---,0.00,VWS V14.01,2013-08-03 17:33:00,
2013-08-03 11:38:00,82.5,54.7,30.20,North,0,0.0,0.0,38,0.00,,---,0.00,VWS V14.01,2013-08-03 17:38:00,
2013-08-03 11:43:00,82.8,54.0,30.19,North,0,0.0,0.0,37,0.00,,---,0.00,VWS V14.01,2013-08-03 17:43:00,
2013-08-03 11:50:00,83.7,54.8,30.19,North,0,0.0,0.0,37,0.00,,---,0.00,VWS V14.01,2013-08-03 17:50:00,
2013-08-03 11:55:00,83.9,52.6,30.19,NE,55,0.0,0.0,34,0.00,,---,0.00,VWS V14.01,2013-08-03 17:55:00,
2013-08-03 12:00:00,84.1,52.4,30.18,ESE,115,3.5,3.5,34,0.00,,---,0.00,VWS V14.01,2013-08-03 18:00:00,
2013-08-03 12:05:00,84.4,51.9,30.18,ENE,63,0.0,0.0,33,0.00,,---,0.00,VWS V14.01,2013-08-03 18:05:00,
2013-08-03 12:10:00,85.0,51.7,30.18,SE,127,0.0,0.0,32,0.00,,---,0.00,VWS V14.01,2013-08-03 18:10:00,
2013-08-03 12:15:00,85.0,50.5,30.19,East,90,2.7,6.2,30,0.00,,---,0.00,VWS V14.01,2013-08-03 18:15:00,
2013-08-03 12:20:00,85.0,50.8,30.18,SE,142,0.0,0.0,31,0.00,,---,0.00,VWS V14.01,2013-08-03 18:20:00,
2013-08-03 12:25:00,85.6,51.4,30.18,East,82,0.0,0.0,31,0.00,,---,0.00,VWS V14.01,2013-08-03 18:25:00,
2013-08-03 12:30:00,85.8,49.1,30.18,ESE,111,4.2,5.8,28,0.00,,---,0.00,VWS V14.01,2013-08-03 18:30:00,
2013-08-03 12:35:00,86.0,49.6,30.18,East,86,0.0,0.0,28,0.00,,---,0.00,VWS V14.01,2013-08-03 18:35:00,
2013-08-03 12:40:00,86.5,48.8,30.18,NE,34,5.5,6.8,27,0.00,,---,0.00,VWS V14.01,2013-08-03 18:40:00,
2013-08-03 12:45:00,86.8,48.5,30.17,NNE,32,0.0,0.0,27,0.00,,---,0.00,VWS V14.01,2013-08-03 18:45:00,
2013-08-03 12:50:00,87.1,47.9,30.17,NNE,24,0.0,0.0,26,0.00,,---,0.00,VWS V14.01,2013-08-03 18:50:00,
2013-08-03 12:55:00,87.4,48.7,30.18,NE,48,0.0,0.0,26,0.00,,---,0.00,VWS V14.01,2013-08-03 18:55:00,
2013-08-03 13:00:00,87.9,49.1,30.17,East,86,0.0,0.0,26,0.00,,---,0.00,VWS V14.01,2013-08-03 19:00:00,
2013-08-03 13:05:00,88.4,47.1,30.17,NE,55,0.0,0.0,24,0.00,,---,0.00,VWS V14.01,2013-08-03 19:05:00,
2013-08-03 13:10:00,88.5,47.6,30.17,North,11,4.7,6.5,24,0.00,,---,0.00,VWS V14.01,2013-08-03 19:10:00,
2013-08-03 13:15:00,88.3,46.5,30.17,North,11,0.0,2.8,24,0.00,,---,0.00,VWS V14.01,2013-08-03 19:15:00,
2013-08-03 13:20:00,87.6,44.8,30.17,NNE,22,3.4,7.0,23,0.00,,---,0.00,VWS V14.01,2013-08-03 19:20:00,
2013-08-03 13:25:00,86.8,44.7,30.17,ESE,117,0.0,0.0,23,0.00,,---,0.00,VWS V14.01,2013-08-03 19:25:00,
2013-08-03 13:30:00,86.6,45.2,30.17,North,10,0.0,0.0,24,0.00,,---,0.00,VWS V14.01,2013-08-03 19:30:00,
2013-08-03 13:35:00,86.5,44.8,30.17,North,10,0.0,0.0,23,0.00,,---,0.00,VWS V14.01,2013-08-03 19:35:00,
2013-08-03 13:40:00,86.3,45.5,30.17,East,91,4.8,4.8,24,0.00,,---,0.00,VWS V14.01,2013-08-03 19:40:00,
2013-08-03 13:45:00,86.1,44.3,30.17,ENE,73,0.0,0.0,23,0.00,,---,0.00,VWS V14.01,2013-08-03 19:45:00,
2013-08-03 13:51:00,85.8,44.5,30.16,ENE,73,0.0,0.0,24,0.00,,---,0.00,VWS V14.01,2013-08-03 19:51:00,
2013-08-03 13:56:00,85.8,44.2,30.16,NE,41,0.0,0.0,23,0.00,,---,0.00,VWS V14.01,2013-08-03 19:56:00,
2013-08-03 14:01:00,85.7,44.1,30.16,NE,48,0.0,0.0,23,0.00,,---,0.00,VWS V14.01,2013-08-03 20:01:00,
2013-08-03 14:06:00,85.7,45.0,30.16,North,356,0.0,0.0,24,0.00,,---,0.00,VWS V14.01,2013-08-03 20:06:00,
2013-08-03 14:11:00,85.8,44.4,30.15,North,356,0.0,0.0,24,0.00,,---,0.00,VWS V14.01,2013-08-03 20:11:00,
2013-08-03 14:17:00,86.2,46.2,30.15,NNE,31,0.0,0.0,25,0.00,,---,0.00,VWS V14.01,2013-08-03 20:17:00,
2013-08-03 14:22:00,86.8,45.0,30.14,ENE,77,0.0,0.0,23,0.00,,---,0.00,VWS V14.01,2013-08-03 20:22:00,
2013-08-03 14:27:00,87.4,44.5,30.14,NE,35,0.0,0.0,22,0.00,,---,0.00,VWS V14.01,2013-08-03 20:27:00,
2013-08-03 14:32:00,87.8,43.4,30.14,ENE,77,2.2,3.4,21,0.00,,---,0.00,VWS V14.01,2013-08-03 20:32:00,
2013-08-03 14:37:00,88.1,44.0,30.13,North,7,0.0,0.0,22,0.00,,---,0.00,VWS V14.01,2013-08-03 20:37:00,
2013-08-03 14:42:00,87.9,42.8,30.13,North,359,0.0,3.0,21,0.00,,---,0.00,VWS V14.01,2013-08-03 20:42:00,
2013-08-03 14:47:00,87.9,43.0,30.13,NNE,25,0.0,0.0,21,0.00,,---,0.00,VWS V14.01,2013-08-03 20:47:00,
2013-08-03 14:52:00,88.2,44.5,30.13,NNE,17,0.0,0.0,22,0.00,,---,0.00,VWS V14.01,2013-08-03 20:52:00,
2013-08-03 14:57:00,88.8,44.1,30.13,NNE,17,0.0,0.0,21,0.00,,---,0.00,VWS V14.01,2013-08-03 20:57:00,
2013-08-03 15:02:00,89.6,44.0,30.13,NNE,17,0.0,0.0,21,0.00,,---,0.00,VWS V14.01,2013-08-03 21:02:00,
2013-08-03 15:07:00,90.3,43.4,30.13,ENE,63,3.4,5.7,20,0.00,,---,0.00,VWS V14.01,2013-08-03 21:07:00,
2013-08-03 15:12:00,90.2,41.9,30.14,East,87,0.0,0.0,19,0.00,,---,0.00,VWS V14.01,2013-08-03 21:12:00,
2013-08-03 15:17:00,90.0,42.1,30.14,North,10,0.0,7.5,19,0.00,,---,0.00,VWS V14.01,2013-08-03 21:17:00,
2013-08-03 15:22:00,90.3,42.6,30.14,NNW,338,0.0,0.0,19,0.00,,---,0.00,VWS V14.01,2013-08-03 21:22:00,
2013-08-03 15:27:00,91.1,44.8,30.15,NNW,338,5.1,5.1,20,0.00,,---,0.00,VWS V14.01,2013-08-03 21:27:00,
2013-08-03 15:32:00,90.2,48.7,30.14,South,187,7.4,10.6,24,0.00,,---,0.00,VWS V14.01,2013-08-03 21:32:00,
2013-08-03 15:37:00,88.3,49.5,30.14,WSW,255,5.7,9.8,26,0.00,,---,0.00,VWS V14.01,2013-08-03 21:37:00,
2013-08-03 15:42:00,86.2,48.0,30.15,South,181,5.7,11.2,27,0.00,,---,0.00,VWS V14.01,2013-08-03 21:42:00,
2013-08-03 15:47:00,85.0,47.2,30.14,WSW,252,4.2,7.1,27,0.00,,---,0.00,VWS V14.01,2013-08-03 21:47:00,
2013-08-03 15:52:00,85.0,47.0,30.14,WSW,257,0.0,0.0,27,0.00,,---,0.00,VWS V14.01,2013-08-03 21:52:00,
2013-08-03 15:57:00,86.0,47.1,30.14,WSW,240,10.4,11.2,26,0.00,,---,0.00,VWS V14.01,2013-08-03 21:57:00,
2013-08-03 16:02:00,86.8,46.9,30.14,West,277,4.2,5.9,25,0.00,,---,0.00,VWS V14.01,2013-08-03 22:02:00,
2013-08-03 16:07:00,87.1,45.9,30.14,West,264,0.0,2.7,24,0.00,,---,0.00,VWS V14.01,2013-08-03 22:07:00,
2013-08-03 16:12:00,86.3,46.4,30.14,SW,215,0.0,0.0,25,0.00,,---,0.00,VWS V14.01,2013-08-03 22:12:00,
2013-08-03 16:17:00,85.8,47.0,30.14,West,264,0.0,0.0,26,0.00,,---,0.00,VWS V14.01,2013-08-03 22:17:00,
2013-08-03 16:22:00,85.2,46.6,30.13,WSW,238,4.4,4.7,26,0.00,,---,0.00,VWS V14.01,2013-08-03 22:22:00,
2013-08-03 16:27:00,84.7,46.9,30.13,SW,235,0.0,0.0,27,0.00,,---,0.00,VWS V14.01,2013-08-03 22:27:00,
2013-08-03 16:32:00,84.6,47.6,30.13,West,263,0.0,4.9,28,0.00,,---,0.00,VWS V14.01,2013-08-03 22:32:00,
2013-08-03 16:37:00,85.0,48.2,30.13,West,260,5.2,7.6,28,0.00,,---,0.00,VWS V14.01,2013-08-03 22:37:00,
2013-08-03 16:42:00,86.2,48.4,30.14,SW,228,0.0,0.0,27,0.00,,---,0.00,VWS V14.01,2013-08-03 22:42:00,
2013-08-03 16:47:00,87.8,48.2,30.14,SSE,166,0.0,0.0,26,0.00,,---,0.00,VWS V14.01,2013-08-03 22:47:00,
2013-08-03 16:52:00,87.6,52.5,30.15,SSW,208,2.1,3.4,30,0.00,,---,0.00,VWS V14.01,2013-08-03 22:52:00,
2013-08-03 16:57:00,86.2,55.5,30.15,SE,145,7.4,10.6,35,0.00,,---,0.00,VWS V14.01,2013-08-03 22:57:00,
2013-08-03 17:03:00,84.2,56.9,30.15,SSE,159,0.0,1.7,39,0.00,,---,0.00,VWS V14.01,2013-08-03 23:03:00,
2013-08-03 17:07:00,82.5,55.1,30.16,NW,315,4.4,8.5,39,0.00,,---,0.00,VWS V14.01,2013-08-03 23:07:00,
2013-08-03 17:13:00,80.6,54.8,30.17,SE,134,8.9,13.7,41,0.00,,---,0.00,VWS V14.01,2013-08-03 23:13:00,
2013-08-03 17:17:00,79.6,55.2,30.17,South,170,3.3,4.1,43,0.00,,---,0.00,VWS V14.01,2013-08-03 23:17:00,
2013-08-03 17:23:00,78.8,54.6,30.17,SSW,194,7.1,7.1,43,0.00,,---,0.00,VWS V14.01,2013-08-03 23:23:00,
2013-08-03 17:28:00,78.2,55.7,30.17,SSW,207,5.5,6.1,46,0.00,,---,0.00,VWS V14.01,2013-08-03 23:28:00,
2013-08-03 17:33:00,77.7,56.5,30.17,SE,129,3.0,4.2,48,0.00,,---,0.00,VWS V14.01,2013-08-03 23:33:00,
2013-08-03 17:38:00,78.3,57.0,30.18,SW,217,0.0,0.0,48,0.00,,---,0.00,VWS V14.01,2013-08-03 23:38:00,
2013-08-03 17:43:00,78.4,55.9,30.18,ENE,65,3.0,6.4,46,0.00,,---,0.00,VWS V14.01,2013-08-03 23:43:00,
2013-08-03 17:48:00,77.5,56.1,30.19,SSE,166,11.2,13.4,48,0.00,,---,0.00,VWS V14.01,2013-08-03 23:48:00,
2013-08-03 17:53:00,76.3,55.8,30.20,South,187,8.5,17.1,49,0.00,,---,0.00,VWS V14.01,2013-08-03 23:53:00,
2013-08-03 17:58:00,75.5,54.7,30.19,South,186,6.6,14.0,48,0.00,,---,0.00,VWS V14.01,2013-08-03 23:58:00,
2013-08-03 18:03:00,74.8,54.0,30.20,South,176,5.1,8.3,48,0.00,,---,0.00,VWS V14.01,2013-08-04 00:03:00,
2013-08-03 18:08:00,74.5,54.6,30.20,South,170,0.0,0.0,50,0.00,,---,0.00,VWS V14.01,2013-08-04 00:08:00,
2013-08-03 18:13:00,74.5,55.7,30.20,WSW,238,0.0,0.0,52,0.00,,---,0.00,VWS V14.01,2013-08-04 00:13:00,
2013-08-03 18:18:00,74.6,56.0,30.23,ENE,59,6.0,6.0,52,0.00,,---,0.00,VWS V14.01,2013-08-04 00:18:00,
2013-08-03 18:23:00,73.9,54.7,30.26,ENE,77,0.0,3.4,51,0.00,,---,0.00,VWS V14.01,2013-08-04 00:23:00,
2013-08-03 18:28:00,73.6,54.8,30.27,ENE,72,5.2,5.5,52,0.00,,---,0.00,VWS V14.01,2013-08-04 00:28:00,
2013-08-03 18:33:00,73.3,54.0,30.28,SSE,155,2.2,4.1,51,0.00,,---,0.00,VWS V14.01,2013-08-04 00:33:00,
2013-08-03 18:38:00,73.1,55.0,30.28,East,89,2.7,4.4,53,0.00,,---,0.00,VWS V14.01,2013-08-04 00:38:00,
2013-08-03 18:43:00,72.7,55.9,30.27,North,359,3.5,4.3,56,0.00,,---,0.00,VWS V14.01,2013-08-04 00:43:00,
2013-08-03 18:48:00,72.2,56.4,30.27,ENE,68,0.0,0.0,58,0.00,,---,0.00,VWS V14.01,2013-08-04 00:48:00,
2013-08-03 18:53:00,72.0,56.6,30.27,NE,49,5.5,6.5,58,0.01,,---,0.01,VWS V14.01,2013-08-04 00:53:00,
2013-08-03 18:58:00,71.8,56.6,30.28,NNE,17,0.0,0.0,59,0.02,,---,0.02,VWS V14.01,2013-08-04 00:58:00,
2013-08-03 19:03:00,72.0,57.0,30.29,NNE,20,3.5,5.7,59,0.02,,---,0.02,VWS V14.01,2013-08-04 01:03:00,
2013-08-03 19:08:00,71.8,57.4,30.30,North,359,0.0,3.2,60,0.02,,---,0.02,VWS V14.01,2013-08-04 01:08:00,
2013-08-03 19:13:00,71.4,57.8,30.31,North,6,9.5,11.7,62,0.02,,---,0.02,VWS V14.01,2013-08-04 01:13:00,
2013-08-03 19:18:00,69.8,59.6,30.33,SE,125,7.3,13.2,70,0.02,,---,0.02,VWS V14.01,2013-08-04 01:18:00,
2013-08-03 19:23:00,67.6,60.2,30.35,ENE,66,7.7,8.9,77,0.02,,---,0.02,VWS V14.01,2013-08-04 01:23:00,
2013-08-03 19:24:00,67.4,60.3,30.35,SSE,162,3.5,4.8,78,0.02,,---,0.02,VWS V14.01,2013-08-04 01:24:00,
2013-08-03 19:29:00,66.5,60.6,30.37,SE,143,4.7,7.1,81,0.02,,---,0.02,VWS V14.01,2013-08-04 01:29:00,
2013-08-03 19:34:00,65.4,60.4,30.38,ENE,62,8.7,9.9,84,0.02,,---,0.02,VWS V14.01,2013-08-04 01:34:00,
2013-08-03 19:39:00,64.8,60.2,30.38,SSE,162,7.5,9.2,85,0.04,,---,0.04,VWS V14.01,2013-08-04 01:39:00,
2013-08-03 19:44:00,64.1,60.0,30.38,East,100,6.6,13.0,86,0.05,,---,0.05,VWS V14.01,2013-08-04 01:44:00,
2013-08-03 19:49:00,63.6,60.0,30.38,SSE,152,0.0,0.0,88,0.05,,---,0.05,VWS V14.01,2013-08-04 01:49:00,
2013-08-03 19:54:00,63.3,60.0,30.38,SSE,160,0.0,4.7,89,0.06,,---,0.06,VWS V14.01,2013-08-04 01:54:00,
2013-08-03 19:59:00,63.0,59.7,30.37,ESE,108,7.3,9.3,89,0.06,,---,0.06,VWS V14.01,2013-08-04 01:59:00,
2013-08-03 20:04:00,62.6,59.4,30.36,South,188,0.0,4.1,89,0.06,,---,0.06,VWS V14.01,2013-08-04 02:04:00,
2013-08-03 20:09:00,62.5,59.7,30.35,SW,222,0.0,3.2,90,0.06,,---,0.06,VWS V14.01,2013-08-04 02:09:00,
2013-08-03 20:14:00,62.7,59.7,30.35,SSW,195,4.8,4.8,90,0.06,,---,0.06,VWS V14.01,2013-08-04 02:14:00,
2013-08-03 20:19:00,62.8,59.7,30.34,South,174,3.4,5.3,90,0.06,,---,0.06,VWS V14.01,2013-08-04 02:19:00,
2013-08-03 20:24:00,62.8,59.7,30.33,SSE,148,3.1,4.2,90,0.06,,---,0.06,VWS V14.01,2013-08-04 02:24:00,
2013-08-03 20:29:00,62.8,59.7,30.33,WSW,239,4.5,5.2,90,0.06,,---,0.06,VWS V14.01,2013-08-04 02:29:00,
2013-08-03 20:34:00,62.7,59.5,30.33,SSE,162,0.0,0.0,89,0.06,,---,0.06,VWS V14.01,2013-08-04 02:34:00,
2013-08-03 20:39:00,62.7,59.5,30.33,South,172,4.7,6.7,89,0.06,,---,0.06,VWS V14.01,2013-08-04 02:39:00,
2013-08-03 20:44:00,62.8,59.7,30.34,East,101,3.2,4.8,90,0.06,,---,0.06,VWS V14.01,2013-08-04 02:44:00,
2013-08-03 20:49:00,63.2,59.9,30.34,South,188,0.0,0.0,89,0.06,,---,0.06,VWS V14.01,2013-08-04 02:49:00,
2013-08-03 20:54:00,63.6,59.8,30.34,West,266,0.0,3.5,88,0.06,,---,0.06,VWS V14.01,2013-08-04 02:54:00,
2013-08-03 20:59:00,63.7,59.8,30.34,SSW,193,3.1,6.2,87,0.06,,---,0.06,VWS V14.01,2013-08-04 02:59:00,
2013-08-03 21:04:00,63.8,59.6,30.35,WSW,256,0.0,0.0,86,0.06,,---,0.06,VWS V14.01,2013-08-04 03:04:00,
2013-08-03 21:09:00,63.9,59.7,30.35,South,180,0.0,0.0,86,0.06,,---,0.06,VWS V14.01,2013-08-04 03:09:00,
2013-08-03 21:14:00,64.1,60.1,30.35,South,180,0.0,0.0,87,0.06,,---,0.06,VWS V14.01,2013-08-04 03:14:00,
2013-08-03 21:19:00,64.1,60.2,30.35,South,180,0.0,0.0,87,0.06,,---,0.06,VWS V14.01,2013-08-04 03:19:00,
2013-08-03 21:24:00,64.1,60.2,30.36,South,180,0.0,0.0,87,0.06,,---,0.06,VWS V14.01,2013-08-04 03:24:00,
2013-08-03 21:29:00,64.1,60.3,30.36,South,180,0.0,0.0,88,0.06,,---,0.06,VWS V14.01,2013-08-04 03:29:00,
2013-08-03 21:34:00,64.2,60.4,30.35,South,180,0.0,0.0,88,0.06,,---,0.06,VWS V14.01,2013-08-04 03:34:00,
2013-08-03 21:39:00,63.9,60.1,30.36,South,180,0.0,0.0,87,0.06,,---,0.06,VWS V14.01,2013-08-04 03:39:00,
2013-08-03 21:45:00,63.5,59.8,30.38,North,350,0.0,0.0,88,0.06,,---,0.06,VWS V14.01,2013-08-04 03:45:00,
2013-08-03 21:50:00,63.4,59.9,30.38,North,350,0.0,0.0,88,0.06,,---,0.06,VWS V14.01,2013-08-04 03:50:00,
2013-08-03 21:55:00,63.5,60.0,30.37,North,350,0.0,0.0,88,0.06,,---,0.06,VWS V14.01,2013-08-04 03:55:00,
2013-08-03 22:00:00,63.6,60.1,30.38,North,350,0.0,0.0,88,0.06,,---,0.06,VWS V14.01,2013-08-04 04:00:00,
2013-08-03 22:01:00,63.6,60.2,30.38,North,350,0.0,0.0,88,0.06,,---,0.06,VWS V14.01,2013-08-04 04:01:00,
2013-08-03 22:07:00,63.6,60.2,30.38,North,350,0.0,0.0,89,0.06,,---,0.06,VWS V14.01,2013-08-04 04:07:00,
2013-08-03 22:12:00,63.7,60.3,30.38,North,350,0.0,0.0,89,0.06,,---,0.06,VWS V14.01,2013-08-04 04:12:00,
2013-08-03 22:17:00,63.6,60.2,30.38,North,350,0.0,0.0,89,0.06,,---,0.06,VWS V14.01,2013-08-04 04:17:00,
2013-08-03 22:22:00,63.6,60.3,30.38,North,350,0.0,0.0,89,0.06,,---,0.06,VWS V14.01,2013-08-04 04:22:00,
2013-08-03 22:27:00,63.5,60.2,30.38,North,350,0.0,0.0,89,0.06,,---,0.06,VWS V14.01,2013-08-04 04:27:00,
2013-08-03 22:32:00,63.5,60.2,30.38,North,350,0.0,0.0,89,0.06,,---,0.06,VWS V14.01,2013-08-04 04:32:00,
2013-08-03 22:37:00,63.6,60.3,30.38,North,350,0.0,0.0,89,0.06,,---,0.06,VWS V14.01,2013-08-04 04:37:00,
2013-08-03 22:42:00,63.5,60.2,30.38,North,350,0.0,0.0,89,0.06,,---,0.06,VWS V14.01,2013-08-04 04:42:00,
2013-08-03 22:47:00,63.6,60.4,30.37,North,350,0.0,0.0,89,0.06,,---,0.06,VWS V14.01,2013-08-04 04:47:00,
2013-08-03 22:52:00,63.6,60.3,30.37,North,350,0.0,0.0,89,0.06,,---,0.06,VWS V14.01,2013-08-04 04:52:00,
2013-08-03 22:57:00,63.5,60.0,30.36,North,350,0.0,0.0,88,0.06,,---,0.06,VWS V14.01,2013-08-04 04:57:00,
2013-08-03 23:02:00,63.3,59.8,30.36,North,350,0.0,0.0,88,0.06,,---,0.06,VWS V14.01,2013-08-04 05:02:00,
2013-08-03 23:07:00,63.2,59.8,30.36,North,350,0.0,0.0,88,0.06,,---,0.06,VWS V14.01,2013-08-04 05:07:00,
2013-08-03 23:12:00,63.1,59.7,30.36,North,350,0.0,0.0,88,0.06,,---,0.06,VWS V14.01,2013-08-04 05:12:00,
2013-08-03 23:17:00,63.0,59.5,30.36,North,350,0.0,0.0,88,0.06,,---,0.06,VWS V14.01,2013-08-04 05:17:00,
2013-08-03 23:22:00,62.8,59.4,30.35,North,350,0.0,0.0,89,0.06,,---,0.06,VWS V14.01,2013-08-04 05:22:00,
2013-08-03 23:27:00,62.8,59.4,30.35,North,350,0.0,0.0,89,0.06,,---,0.06,VWS V14.01,2013-08-04 05:27:00,
2013-08-03 23:32:00,62.7,59.2,30.35,North,350,0.0,0.0,88,0.06,,---,0.06,VWS V14.01,2013-08-04 05:32:00,
2013-08-03 23:37:00,62.6,59.0,30.35,North,350,0.0,0.0,88,0.06,,---,0.06,VWS V14.01,2013-08-04 05:37:00,
2013-08-03 23:42:00,62.5,58.9,30.34,North,350,0.0,0.0,88,0.06,,---,0.06,VWS V14.01,2013-08-04 05:42:00,
2013-08-03 23:47:00,62.4,58.9,30.33,North,350,0.0,0.0,88,0.06,,---,0.06,VWS V14.01,2013-08-04 05:47:00,
2013-08-03 23:52:00,62.2,58.7,30.33,North,350,0.0,0.0,88,0.06,,---,0.06,VWS V14.01,2013-08-04 05:52:00,
2013-08-03 23:57:00,62.2,58.7,30.32,North,350,0.0,0.0,88,0.06,,---,0.06,VWS V14.01,2013-08-04 05:57:00,
2013-08-03 23:59:00,73.1,47.8,30.15,WSW,240,0.0,0.0,41,0.00,,---,0.00,VWS V14.01,2013-08-04 05:59:00,